Martensdale, Iowa
Current Conditions -  °F | °C
As of 4:54 PM on Thursday 18 Dec 2014 (Local Time) from KDSM Reporting Station
Overcast Overcast  
Wind Chill: 25°   Ceiling: 4700
Heat Index: 30°   Visibility: 10mi
Dew Point: 21°   Wind: 5mph
Humidity: 69%   Direction: 100°E
Pressure: 30.25"   Gusts: NA
Location:  41.37°N, 93.74°W
Report Text: KDSM 182254Z 10004KT 10SM OVC047 M01/M06 A3025 RMK AO2 SLP255 T10111061
Loading
Personal Weather Stations






























Interactive Weather Map New forecast layout! Learn more

10-Day Weather Forecast

Advertisements
Track Severe Weather on mobile